sensor_id;sensor_type;location;lat;lon;timestamp;P1;durP1;ratioP1;P2;durP2;ratioP2
52126;SDS011;38120;53.176;6.614;2022-10-13T00:00:39;24.67;;;12.50;;
52126;SDS011;38120;53.176;6.614;2022-10-13T00:03:08;23.45;;;13.52;;
52126;SDS011;38120;53.176;6.614;2022-10-13T00:05:34;24.30;;;11.83;;
52126;SDS011;38120;53.176;6.614;2022-10-13T00:08:04;17.08;;;12.32;;
52126;SDS011;38120;53.176;6.614;2022-10-13T00:10:29;24.23;;;13.43;;
52126;SDS011;38120;53.176;6.614;2022-10-13T00:12:55;19.10;;;12.03;;
52126;SDS011;38120;53.176;6.614;2022-10-13T00:15:21;23.92;;;13.10;;
52126;SDS011;38120;53.176;6.614;2022-10-13T00:17:49;20.23;;;12.38;;
52126;SDS011;38120;53.176;6.614;2022-10-13T00:20:16;22.88;;;12.60;;
52126;SDS011;38120;53.176;6.614;2022-10-13T00:22:42;21.67;;;12.37;;
52126;SDS011;38120;53.176;6.614;2022-10-13T00:25:07;21.37;;;12.17;;
52126;SDS011;38120;53.176;6.614;2022-10-13T00:27:33;17.98;;;12.95;;
52126;SDS011;38120;53.176;6.614;2022-10-13T00:29:59;20.40;;;12.97;;
52126;SDS011;38120;53.176;6.614;2022-10-13T00:32:25;21.80;;;13.17;;
52126;SDS011;38120;53.176;6.614;2022-10-13T00:34:50;18.42;;;12.35;;
52126;SDS011;38120;53.176;6.614;2022-10-13T00:37:16;20.97;;;13.30;;
52126;SDS011;38120;53.176;6.614;2022-10-13T00:39:42;23.97;;;13.87;;
52126;SDS011;38120;53.176;6.614;2022-10-13T00:42:09;21.47;;;13.63;;
52126;SDS011;38120;53.176;6.614;2022-10-13T00:47:36;26.40;;;15.02;;
52126;SDS011;38120;53.176;6.614;2022-10-13T00:50:06;23.07;;;13.53;;
52126;SDS011;38120;53.176;6.614;2022-10-13T00:52:35;30.60;;;14.15;;
52126;SDS011;38120;53.176;6.614;2022-10-13T00:55:03;22.17;;;12.93;;
52126;SDS011;38120;53.176;6.614;2022-10-13T00:57:31;25.20;;;13.77;;
52126;SDS011;38120;53.176;6.614;2022-10-13T00:59:57;22.85;;;13.80;;
52126;SDS011;38120;53.176;6.614;2022-10-13T01:02:26;27.45;;;15.43;;
52126;SDS011;38120;53.176;6.614;2022-10-13T01:04:56;26.75;;;14.50;;
52126;SDS011;38120;53.176;6.614;2022-10-13T01:07:23;21.55;;;13.55;;
52126;SDS011;38120;53.176;6.614;2022-10-13T01:09:49;24.27;;;13.18;;
52126;SDS011;38120;53.176;6.614;2022-10-13T01:32:06;24.38;;;14.05;;
52126;SDS011;38120;53.176;6.614;2022-10-13T01:34:52;21.70;;;13.52;;
52126;SDS011;38120;53.176;6.614;2022-10-13T01:37:32;29.90;;;14.40;;
52126;SDS011;38120;53.176;6.614;2022-10-13T01:40:20;23.02;;;15.20;;
52126;SDS011;38120;53.176;6.614;2022-10-13T01:45:23;26.63;;;14.48;;
52126;SDS011;38120;53.176;6.614;2022-10-13T01:47:53;22.23;;;14.70;;
52126;SDS011;38120;53.176;6.614;2022-10-13T01:50:20;22.20;;;14.48;;
52126;SDS011;38120;53.176;6.614;2022-10-13T01:52:47;21.17;;;13.30;;
52126;SDS011;38120;53.176;6.614;2022-10-13T01:55:14;28.70;;;15.85;;
52126;SDS011;38120;53.176;6.614;2022-10-13T01:57:40;21.05;;;13.93;;
52126;SDS011;38120;53.176;6.614;2022-10-13T02:00:09;27.58;;;13.90;;
52126;SDS011;38120;53.176;6.614;2022-10-13T02:02:46;27.60;;;15.00;;
52126;SDS011;38120;53.176;6.614;2022-10-13T02:11:01;23.65;;;14.68;;
52126;SDS011;38120;53.176;6.614;2022-10-13T02:13:46;29.13;;;15.18;;
52126;SDS011;38120;53.176;6.614;2022-10-13T02:16:29;23.58;;;15.95;;
52126;SDS011;38120;53.176;6.614;2022-10-13T02:18:59;22.67;;;14.52;;
52126;SDS011;38120;53.176;6.614;2022-10-13T02:21:28;19.95;;;13.70;;
52126;SDS011;38120;53.176;6.614;2022-10-13T02:23:55;23.27;;;14.52;;
52126;SDS011;38120;53.176;6.614;2022-10-13T02:26:21;23.90;;;15.55;;
52126;SDS011;38120;53.176;6.614;2022-10-13T02:28:47;24.65;;;15.75;;
52126;SDS011;38120;53.176;6.614;2022-10-13T02:31:13;22.17;;;14.57;;
52126;SDS011;38120;53.176;6.614;2022-10-13T02:33:39;26.37;;;14.77;;
52126;SDS011;38120;53.176;6.614;2022-10-13T02:36:04;21.07;;;14.10;;
52126;SDS011;38120;53.176;6.614;2022-10-13T02:38:30;24.97;;;15.53;;
52126;SDS011;38120;53.176;6.614;2022-10-13T02:40:56;22.23;;;14.20;;
52126;SDS011;38120;53.176;6.614;2022-10-13T02:43:22;25.80;;;15.45;;
52126;SDS011;38120;53.176;6.614;2022-10-13T02:45:48;26.50;;;14.93;;
52126;SDS011;38120;53.176;6.614;2022-10-13T02:48:13;28.60;;;16.83;;
52126;SDS011;38120;53.176;6.614;2022-10-13T02:50:39;19.03;;;13.77;;
52126;SDS011;38120;53.176;6.614;2022-10-13T02:53:04;21.30;;;15.27;;
52126;SDS011;38120;53.176;6.614;2022-10-13T02:55:30;26.83;;;15.70;;
52126;SDS011;38120;53.176;6.614;2022-10-13T02:57:56;25.37;;;14.00;;
52126;SDS011;38120;53.176;6.614;2022-10-13T03:00:22;25.33;;;15.17;;
52126;SDS011;38120;53.176;6.614;2022-10-13T03:02:48;26.67;;;15.70;;
52126;SDS011;38120;53.176;6.614;2022-10-13T03:05:13;24.73;;;15.47;;
52126;SDS011;38120;53.176;6.614;2022-10-13T03:07:39;28.20;;;16.40;;
52126;SDS011;38120;53.176;6.614;2022-10-13T03:10:05;25.13;;;16.63;;
52126;SDS011;38120;53.176;6.614;2022-10-13T03:12:31;22.98;;;15.57;;
52126;SDS011;38120;53.176;6.614;2022-10-13T03:14:56;28.30;;;16.13;;
52126;SDS011;38120;53.176;6.614;2022-10-13T03:17:22;26.77;;;15.67;;
52126;SDS011;38120;53.176;6.614;2022-10-13T03:19:47;25.77;;;15.60;;
52126;SDS011;38120;53.176;6.614;2022-10-13T03:22:13;27.33;;;17.60;;
52126;SDS011;38120;53.176;6.614;2022-10-13T03:24:40;27.80;;;15.88;;
52126;SDS011;38120;53.176;6.614;2022-10-13T03:27:06;23.65;;;16.20;;
52126;SDS011;38120;53.176;6.614;2022-10-13T03:29:32;29.83;;;17.13;;
52126;SDS011;38120;53.176;6.614;2022-10-13T03:31:58;26.45;;;16.52;;
52126;SDS011;38120;53.176;6.614;2022-10-13T03:34:24;25.52;;;17.27;;
52126;SDS011;38120;53.176;6.614;2022-10-13T03:36:49;22.17;;;15.90;;
52126;SDS011;38120;53.176;6.614;2022-10-13T03:39:15;26.75;;;16.90;;
52126;SDS011;38120;53.176;6.614;2022-10-13T03:41:41;29.33;;;18.93;;
52126;SDS011;38120;53.176;6.614;2022-10-13T03:44:08;29.27;;;18.90;;
52126;SDS011;38120;53.176;6.614;2022-10-13T03:46:37;28.67;;;17.33;;
52126;SDS011;38120;53.176;6.614;2022-10-13T03:49:03;28.65;;;18.00;;
52126;SDS011;38120;53.176;6.614;2022-10-13T03:51:29;35.67;;;18.17;;
52126;SDS011;38120;53.176;6.614;2022-10-13T03:53:55;27.87;;;17.30;;
52126;SDS011;38120;53.176;6.614;2022-10-13T03:56:22;29.77;;;19.48;;
52126;SDS011;38120;53.176;6.614;2022-10-13T03:58:49;30.30;;;17.90;;
52126;SDS011;38120;53.176;6.614;2022-10-13T04:01:19;30.25;;;18.20;;
52126;SDS011;38120;53.176;6.614;2022-10-13T04:03:49;27.15;;;17.75;;
52126;SDS011;38120;53.176;6.614;2022-10-13T04:06:16;27.50;;;17.92;;
52126;SDS011;38120;53.176;6.614;2022-10-13T04:08:42;31.93;;;19.83;;
52126;SDS011;38120;53.176;6.614;2022-10-13T04:11:10;28.85;;;18.35;;
52126;SDS011;38120;53.176;6.614;2022-10-13T04:13:37;29.58;;;18.10;;
52126;SDS011;38120;53.176;6.614;2022-10-13T04:16:04;33.25;;;19.90;;
52126;SDS011;38120;53.176;6.614;2022-10-13T04:18:31;26.77;;;19.02;;
52126;SDS011;38120;53.176;6.614;2022-10-13T04:20:57;31.45;;;20.23;;
52126;SDS011;38120;53.176;6.614;2022-10-13T04:23:23;30.80;;;19.67;;
52126;SDS011;38120;53.176;6.614;2022-10-13T04:25:48;27.33;;;18.80;;
52126;SDS011;38120;53.176;6.614;2022-10-13T04:28:14;30.02;;;20.75;;
52126;SDS011;38120;53.176;6.614;2022-10-13T04:30:40;29.08;;;20.92;;
52126;SDS011;38120;53.176;6.614;2022-10-13T04:33:06;29.67;;;21.37;;
52126;SDS011;38120;53.176;6.614;2022-10-13T04:35:32;33.03;;;21.27;;
52126;SDS011;38120;53.176;6.614;2022-10-13T04:37:57;32.27;;;21.03;;
52126;SDS011;38120;53.176;6.614;2022-10-13T04:40:24;29.30;;;20.87;;
52126;SDS011;38120;53.176;6.614;2022-10-13T04:42:50;30.45;;;21.40;;
52126;SDS011;38120;53.176;6.614;2022-10-13T04:45:16;31.10;;;22.38;;
52126;SDS011;38120;53.176;6.614;2022-10-13T04:47:42;35.28;;;20.90;;
52126;SDS011;38120;53.176;6.614;2022-10-13T04:50:08;33.85;;;21.63;;
52126;SDS011;38120;53.176;6.614;2022-10-13T04:52:34;28.60;;;19.77;;
52126;SDS011;38120;53.176;6.614;2022-10-13T04:55:00;29.75;;;19.85;;
52126;SDS011;38120;53.176;6.614;2022-10-13T04:57:26;29.33;;;20.98;;
52126;SDS011;38120;53.176;6.614;2022-10-13T04:59:52;34.05;;;21.30;;
52126;SDS011;38120;53.176;6.614;2022-10-13T05:02:18;38.10;;;23.48;;
52126;SDS011;38120;53.176;6.614;2022-10-13T05:04:44;31.30;;;21.77;;
52126;SDS011;38120;53.176;6.614;2022-10-13T05:07:09;32.47;;;21.07;;
52126;SDS011;38120;53.176;6.614;2022-10-13T05:09:35;35.63;;;22.53;;
52126;SDS011;38120;53.176;6.614;2022-10-13T05:12:01;31.25;;;22.75;;
52126;SDS011;38120;53.176;6.614;2022-10-13T05:14:26;31.90;;;23.47;;
52126;SDS011;38120;53.176;6.614;2022-10-13T05:16:52;31.97;;;21.20;;
52126;SDS011;38120;53.176;6.614;2022-10-13T05:19:18;32.90;;;22.03;;
52126;SDS011;38120;53.176;6.614;2022-10-13T05:21:44;34.65;;;23.73;;
52126;SDS011;38120;53.176;6.614;2022-10-13T05:24:10;34.33;;;24.17;;
52126;SDS011;38120;53.176;6.614;2022-10-13T05:26:37;32.10;;;22.85;;
52126;SDS011;38120;53.176;6.614;2022-10-13T05:29:04;32.50;;;21.45;;
52126;SDS011;38120;53.176;6.614;2022-10-13T05:31:30;31.35;;;23.73;;
52126;SDS011;38120;53.176;6.614;2022-10-13T05:33:57;33.55;;;22.65;;
52126;SDS011;38120;53.176;6.614;2022-10-13T05:36:26;35.45;;;23.17;;
52126;SDS011;38120;53.176;6.614;2022-10-13T05:38:58;34.95;;;23.50;;
52126;SDS011;38120;53.176;6.614;2022-10-13T05:41:26;34.03;;;22.92;;
52126;SDS011;38120;53.176;6.614;2022-10-13T05:43:53;40.67;;;24.80;;
52126;SDS011;38120;53.176;6.614;2022-10-13T05:46:27;33.03;;;24.65;;
52126;SDS011;38120;53.176;6.614;2022-10-13T05:48:53;33.70;;;24.13;;
52126;SDS011;38120;53.176;6.614;2022-10-13T05:51:20;36.80;;;24.90;;
52126;SDS011;38120;53.176;6.614;2022-10-13T05:53:50;37.70;;;24.30;;
52126;SDS011;38120;53.176;6.614;2022-10-13T05:56:20;38.20;;;24.65;;
52126;SDS011;38120;53.176;6.614;2022-10-13T05:58:50;37.22;;;24.00;;
52126;SDS011;38120;53.176;6.614;2022-10-13T06:01:21;36.88;;;24.65;;
52126;SDS011;38120;53.176;6.614;2022-10-13T06:03:49;37.10;;;23.90;;
52126;SDS011;38120;53.176;6.614;2022-10-13T06:06:17;33.00;;;24.05;;
52126;SDS011;38120;53.176;6.614;2022-10-13T06:08:43;35.33;;;24.90;;
52126;SDS011;38120;53.176;6.614;2022-10-13T06:11:09;36.67;;;26.10;;
52126;SDS011;38120;53.176;6.614;2022-10-13T06:13:34;43.07;;;26.30;;
52126;SDS011;38120;53.176;6.614;2022-10-13T06:16:00;36.83;;;25.40;;
52126;SDS011;38120;53.176;6.614;2022-10-13T06:18:26;40.73;;;28.50;;
52126;SDS011;38120;53.176;6.614;2022-10-13T06:20:52;38.33;;;26.92;;
52126;SDS011;38120;53.176;6.614;2022-10-13T06:23:18;45.60;;;30.80;;
52126;SDS011;38120;53.176;6.614;2022-10-13T06:25:50;39.57;;;26.17;;
52126;SDS011;38120;53.176;6.614;2022-10-13T06:28:16;40.10;;;25.50;;
52126;SDS011;38120;53.176;6.614;2022-10-13T06:30:43;42.25;;;25.77;;
52126;SDS011;38120;53.176;6.614;2022-10-13T06:33:13;41.78;;;26.52;;
52126;SDS011;38120;53.176;6.614;2022-10-13T06:35:39;37.35;;;27.20;;
52126;SDS011;38120;53.176;6.614;2022-10-13T06:38:05;40.13;;;28.35;;
52126;SDS011;38120;53.176;6.614;2022-10-13T06:40:31;39.10;;;26.93;;
52126;SDS011;38120;53.176;6.614;2022-10-13T06:42:56;37.27;;;27.00;;
52126;SDS011;38120;53.176;6.614;2022-10-13T06:45:22;37.65;;;26.52;;
52126;SDS011;38120;53.176;6.614;2022-10-13T06:47:48;39.87;;;28.77;;
52126;SDS011;38120;53.176;6.614;2022-10-13T06:50:13;45.53;;;30.17;;
52126;SDS011;38120;53.176;6.614;2022-10-13T06:52:39;44.92;;;29.67;;
52126;SDS011;38120;53.176;6.614;2022-10-13T06:55:05;52.15;;;32.83;;
52126;SDS011;38120;53.176;6.614;2022-10-13T06:57:31;41.85;;;29.30;;
52126;SDS011;38120;53.176;6.614;2022-10-13T06:59:57;46.45;;;27.90;;
52126;SDS011;38120;53.176;6.614;2022-10-13T07:02:23;38.20;;;26.47;;
52126;SDS011;38120;53.176;6.614;2022-10-13T07:04:48;45.63;;;28.67;;
52126;SDS011;38120;53.176;6.614;2022-10-13T07:07:14;38.67;;;26.45;;
52126;SDS011;38120;53.176;6.614;2022-10-13T07:09:40;40.25;;;27.10;;
52126;SDS011;38120;53.176;6.614;2022-10-13T07:12:06;42.33;;;29.05;;
52126;SDS011;38120;53.176;6.614;2022-10-13T07:14:32;36.40;;;26.43;;
52126;SDS011;38120;53.176;6.614;2022-10-13T07:16:58;46.97;;;29.08;;
52126;SDS011;38120;53.176;6.614;2022-10-13T07:19:24;36.15;;;26.65;;
52126;SDS011;38120;53.176;6.614;2022-10-13T07:21:50;40.53;;;26.87;;
52126;SDS011;38120;53.176;6.614;2022-10-13T07:24:15;42.78;;;28.08;;
52126;SDS011;38120;53.176;6.614;2022-10-13T07:26:41;39.53;;;26.80;;
52126;SDS011;38120;53.176;6.614;2022-10-13T07:29:07;43.70;;;29.00;;
52126;SDS011;38120;53.176;6.614;2022-10-13T07:31:33;39.47;;;25.88;;
52126;SDS011;38120;53.176;6.614;2022-10-13T07:33:59;38.05;;;26.73;;
52126;SDS011;38120;53.176;6.614;2022-10-13T07:36:25;44.85;;;28.63;;
52126;SDS011;38120;53.176;6.614;2022-10-13T07:38:51;41.03;;;28.23;;
52126;SDS011;38120;53.176;6.614;2022-10-13T07:41:17;33.60;;;24.75;;
52126;SDS011;38120;53.176;6.614;2022-10-13T07:43:43;38.73;;;26.00;;
52126;SDS011;38120;53.176;6.614;2022-10-13T07:46:09;38.80;;;24.63;;
52126;SDS011;38120;53.176;6.614;2022-10-13T07:48:37;35.28;;;23.55;;
52126;SDS011;38120;53.176;6.614;2022-10-13T07:51:07;38.05;;;25.52;;
52126;SDS011;38120;53.176;6.614;2022-10-13T07:53:34;34.10;;;23.95;;
52126;SDS011;38120;53.176;6.614;2022-10-13T07:56:00;38.75;;;25.35;;
52126;SDS011;38120;53.176;6.614;2022-10-13T07:58:27;37.85;;;26.42;;
52126;SDS011;38120;53.176;6.614;2022-10-13T08:00:57;39.00;;;28.27;;
52126;SDS011;38120;53.176;6.614;2022-10-13T08:03:24;35.60;;;25.80;;
52126;SDS011;38120;53.176;6.614;2022-10-13T08:05:51;35.47;;;25.30;;
52126;SDS011;38120;53.176;6.614;2022-10-13T08:08:17;36.50;;;26.48;;
52126;SDS011;38120;53.176;6.614;2022-10-13T08:10:42;37.63;;;25.70;;
52126;SDS011;38120;53.176;6.614;2022-10-13T08:13:09;35.57;;;24.93;;
52126;SDS011;38120;53.176;6.614;2022-10-13T08:15:38;38.05;;;26.58;;
52126;SDS011;38120;53.176;6.614;2022-10-13T08:18:05;34.78;;;26.50;;
52126;SDS011;38120;53.176;6.614;2022-10-13T08:20:31;44.25;;;27.42;;
52126;SDS011;38120;53.176;6.614;2022-10-13T08:22:58;36.28;;;23.95;;
52126;SDS011;38120;53.176;6.614;2022-10-13T08:25:24;39.53;;;25.05;;
52126;SDS011;38120;53.176;6.614;2022-10-13T08:27:49;33.47;;;23.53;;
52126;SDS011;38120;53.176;6.614;2022-10-13T08:30:15;45.60;;;27.60;;
52126;SDS011;38120;53.176;6.614;2022-10-13T08:32:41;32.85;;;25.10;;
52126;SDS011;38120;53.176;6.614;2022-10-13T08:35:07;40.35;;;25.08;;
52126;SDS011;38120;53.176;6.614;2022-10-13T08:37:34;39.63;;;26.42;;
52126;SDS011;38120;53.176;6.614;2022-10-13T08:39:59;35.65;;;24.40;;
52126;SDS011;38120;53.176;6.614;2022-10-13T08:42:25;42.50;;;25.40;;
52126;SDS011;38120;53.176;6.614;2022-10-13T08:44:52;43.88;;;26.60;;
52126;SDS011;38120;53.176;6.614;2022-10-13T08:47:34;37.13;;;27.42;;
52126;SDS011;38120;53.176;6.614;2022-10-13T08:50:10;35.50;;;27.02;;
52126;SDS011;38120;53.176;6.614;2022-10-13T08:55:31;34.50;;;25.35;;
52126;SDS011;38120;53.176;6.614;2022-10-13T08:58:00;38.00;;;27.15;;
52126;SDS011;38120;53.176;6.614;2022-10-13T09:00:30;36.97;;;26.92;;
52126;SDS011;38120;53.176;6.614;2022-10-13T09:05:51;39.13;;;27.58;;
52126;SDS011;38120;53.176;6.614;2022-10-13T09:08:23;34.10;;;24.27;;
52126;SDS011;38120;53.176;6.614;2022-10-13T09:10:53;41.15;;;28.38;;
52126;SDS011;38120;53.176;6.614;2022-10-13T09:13:19;45.10;;;29.65;;
52126;SDS011;38120;53.176;6.614;2022-10-13T09:15:46;38.80;;;29.48;;
52126;SDS011;38120;53.176;6.614;2022-10-13T09:18:14;33.90;;;25.65;;
52126;SDS011;38120;53.176;6.614;2022-10-13T09:20:40;42.63;;;29.40;;
52126;SDS011;38120;53.176;6.614;2022-10-13T09:23:19;41.25;;;28.65;;
52126;SDS011;38120;53.176;6.614;2022-10-13T09:25:47;43.65;;;28.98;;
52126;SDS011;38120;53.176;6.614;2022-10-13T09:28:21;40.80;;;29.17;;
52126;SDS011;38120;53.176;6.614;2022-10-13T09:30:59;42.55;;;28.63;;
52126;SDS011;38120;53.176;6.614;2022-10-13T09:33:32;41.08;;;30.40;;
52126;SDS011;38120;53.176;6.614;2022-10-13T09:38:30;46.13;;;31.77;;
52126;SDS011;38120;53.176;6.614;2022-10-13T09:41:03;43.70;;;27.60;;
52126;SDS011;38120;53.176;6.614;2022-10-13T09:46:23;46.05;;;31.63;;
52126;SDS011;38120;53.176;6.614;2022-10-13T09:57:08;46.08;;;30.35;;
52126;SDS011;38120;53.176;6.614;2022-10-13T09:59:43;43.03;;;27.85;;
52126;SDS011;38120;53.176;6.614;2022-10-13T10:02:23;45.08;;;29.35;;
52126;SDS011;38120;53.176;6.614;2022-10-13T10:05:18;42.63;;;29.48;;
52126;SDS011;38120;53.176;6.614;2022-10-13T10:07:48;42.92;;;31.05;;
52126;SDS011;38120;53.176;6.614;2022-10-13T10:10:22;39.92;;;29.58;;
52126;SDS011;38120;53.176;6.614;2022-10-13T10:12:59;43.53;;;29.63;;
52126;SDS011;38120;53.176;6.614;2022-10-13T10:15:28;45.38;;;30.38;;
52126;SDS011;38120;53.176;6.614;2022-10-13T10:18:12;41.85;;;29.20;;
52126;SDS011;38120;53.176;6.614;2022-10-13T10:26:28;40.70;;;29.13;;
52126;SDS011;38120;53.176;6.614;2022-10-13T10:29:21;41.03;;;28.13;;
52126;SDS011;38120;53.176;6.614;2022-10-13T10:34:51;32.25;;;23.67;;
52126;SDS011;38120;53.176;6.614;2022-10-13T10:43:07;33.67;;;26.17;;
52126;SDS011;38120;53.176;6.614;2022-10-13T10:45:55;37.03;;;26.70;;
52126;SDS011;38120;53.176;6.614;2022-10-13T10:48:33;35.13;;;26.58;;
52126;SDS011;38120;53.176;6.614;2022-10-13T10:51:07;37.17;;;26.63;;
52126;SDS011;38120;53.176;6.614;2022-10-13T10:56:29;33.95;;;25.42;;
52126;SDS011;38120;53.176;6.614;2022-10-13T10:59:04;35.88;;;26.98;;
52126;SDS011;38120;53.176;6.614;2022-10-13T11:01:50;35.90;;;24.55;;
52126;SDS011;38120;53.176;6.614;2022-10-13T11:04:40;33.70;;;26.20;;
52126;SDS011;38120;53.176;6.614;2022-10-13T11:07:13;32.33;;;23.50;;
52126;SDS011;38120;53.176;6.614;2022-10-13T11:17:36;30.10;;;23.63;;
52126;SDS011;38120;53.176;6.614;2022-10-13T11:30:50;29.50;;;23.95;;
52126;SDS011;38120;53.176;6.614;2022-10-13T11:36:49;28.02;;;22.15;;
52126;SDS011;38120;53.176;6.614;2022-10-13T11:41:56;29.02;;;22.38;;
52126;SDS011;38120;53.176;6.614;2022-10-13T11:55:10;29.35;;;22.30;;
52126;SDS011;38120;53.176;6.614;2022-10-13T11:57:39;28.77;;;22.02;;
52126;SDS011;38120;53.176;6.614;2022-10-13T12:00:11;34.80;;;24.97;;
52126;SDS011;38120;53.176;6.614;2022-10-13T12:02:49;28.60;;;23.60;;
52126;SDS011;38120;53.176;6.614;2022-10-13T12:05:23;29.75;;;23.40;;
52126;SDS011;38120;53.176;6.614;2022-10-13T12:07:54;27.85;;;22.75;;
52126;SDS011;38120;53.176;6.614;2022-10-13T12:12:53;31.42;;;24.70;;
52126;SDS011;38120;53.176;6.614;2022-10-13T12:16:02;37.08;;;26.25;;
52126;SDS011;38120;53.176;6.614;2022-10-13T12:21:08;31.63;;;23.40;;
52126;SDS011;38120;53.176;6.614;2022-10-13T12:23:46;30.38;;;23.15;;
52126;SDS011;38120;53.176;6.614;2022-10-13T12:26:14;33.28;;;24.02;;
52126;SDS011;38120;53.176;6.614;2022-10-13T12:28:43;32.60;;;23.35;;
52126;SDS011;38120;53.176;6.614;2022-10-13T12:31:16;33.38;;;24.42;;
52126;SDS011;38120;53.176;6.614;2022-10-13T12:34:12;33.22;;;24.30;;
52126;SDS011;38120;53.176;6.614;2022-10-13T12:36:42;33.03;;;24.70;;
52126;SDS011;38120;53.176;6.614;2022-10-13T12:39:11;28.52;;;22.08;;
52126;SDS011;38120;53.176;6.614;2022-10-13T12:41:44;35.08;;;24.40;;
52126;SDS011;38120;53.176;6.614;2022-10-13T12:44:12;31.25;;;22.98;;
52126;SDS011;38120;53.176;6.614;2022-10-13T12:46:45;30.50;;;23.85;;
52126;SDS011;38120;53.176;6.614;2022-10-13T12:51:39;30.80;;;22.88;;
52126;SDS011;38120;53.176;6.614;2022-10-13T12:54:07;37.45;;;24.25;;
52126;SDS011;38120;53.176;6.614;2022-10-13T12:56:41;32.65;;;23.48;;
52126;SDS011;38120;53.176;6.614;2022-10-13T12:59:12;35.70;;;24.60;;
52126;SDS011;38120;53.176;6.614;2022-10-13T13:01:43;33.40;;;23.88;;
52126;SDS011;38120;53.176;6.614;2022-10-13T13:06:51;31.17;;;23.02;;
52126;SDS011;38120;53.176;6.614;2022-10-13T13:12:35;32.33;;;25.27;;
52126;SDS011;38120;53.176;6.614;2022-10-13T13:19:43;32.17;;;23.50;;
52126;SDS011;38120;53.176;6.614;2022-10-13T13:22:13;33.65;;;24.83;;
52126;SDS011;38120;53.176;6.614;2022-10-13T13:27:27;29.70;;;23.50;;
52126;SDS011;38120;53.176;6.614;2022-10-13T13:29:56;31.50;;;24.08;;
52126;SDS011;38120;53.176;6.614;2022-10-13T13:32:22;34.13;;;23.50;;
52126;SDS011;38120;53.176;6.614;2022-10-13T13:34:51;34.05;;;25.33;;
52126;SDS011;38120;53.176;6.614;2022-10-13T13:39:53;32.58;;;23.70;;
52126;SDS011;38120;53.176;6.614;2022-10-13T13:42:19;28.23;;;22.25;;
52126;SDS011;38120;53.176;6.614;2022-10-13T13:44:45;35.03;;;23.20;;
52126;SDS011;38120;53.176;6.614;2022-10-13T13:47:15;33.30;;;25.43;;
52126;SDS011;38120;53.176;6.614;2022-10-13T13:49:42;31.63;;;23.52;;
52126;SDS011;38120;53.176;6.614;2022-10-13T13:52:08;31.95;;;23.55;;
52126;SDS011;38120;53.176;6.614;2022-10-13T13:54:33;31.20;;;21.63;;
52126;SDS011;38120;53.176;6.614;2022-10-13T13:56:59;34.58;;;23.25;;
52126;SDS011;38120;53.176;6.614;2022-10-13T13:59:25;29.07;;;23.13;;
52126;SDS011;38120;53.176;6.614;2022-10-13T14:01:50;32.47;;;23.20;;
52126;SDS011;38120;53.176;6.614;2022-10-13T14:04:16;37.93;;;25.87;;
52126;SDS011;38120;53.176;6.614;2022-10-13T14:06:42;29.13;;;22.63;;
52126;SDS011;38120;53.176;6.614;2022-10-13T14:09:07;27.83;;;21.57;;
52126;SDS011;38120;53.176;6.614;2022-10-13T14:11:33;29.33;;;21.20;;
52126;SDS011;38120;53.176;6.614;2022-10-13T14:13:58;32.23;;;22.93;;
52126;SDS011;38120;53.176;6.614;2022-10-13T14:16:26;32.72;;;22.23;;
52126;SDS011;38120;53.176;6.614;2022-10-13T14:18:52;28.08;;;20.58;;
52126;SDS011;38120;53.176;6.614;2022-10-13T14:21:21;33.97;;;21.77;;
52126;SDS011;38120;53.176;6.614;2022-10-13T14:23:46;35.55;;;22.98;;
52126;SDS011;38120;53.176;6.614;2022-10-13T14:26:13;28.90;;;20.23;;
52126;SDS011;38120;53.176;6.614;2022-10-13T14:31:06;33.08;;;22.30;;
52126;SDS011;38120;53.176;6.614;2022-10-13T14:33:32;29.48;;;20.92;;
52126;SDS011;38120;53.176;6.614;2022-10-13T14:36:01;31.38;;;21.63;;
52126;SDS011;38120;53.176;6.614;2022-10-13T14:38:29;30.42;;;20.48;;
52126;SDS011;38120;53.176;6.614;2022-10-13T14:40:58;30.08;;;22.00;;
52126;SDS011;38120;53.176;6.614;2022-10-13T14:43:24;30.42;;;22.50;;
52126;SDS011;38120;53.176;6.614;2022-10-13T14:45:50;28.65;;;21.00;;
52126;SDS011;38120;53.176;6.614;2022-10-13T14:48:16;27.20;;;19.87;;
52126;SDS011;38120;53.176;6.614;2022-10-13T14:50:42;36.93;;;23.60;;
52126;SDS011;38120;53.176;6.614;2022-10-13T14:53:08;28.90;;;21.38;;
52126;SDS011;38120;53.176;6.614;2022-10-13T14:55:42;26.20;;;20.60;;
52126;SDS011;38120;53.176;6.614;2022-10-13T14:58:09;27.67;;;20.77;;
52126;SDS011;38120;53.176;6.614;2022-10-13T15:03:02;27.98;;;19.15;;
52126;SDS011;38120;53.176;6.614;2022-10-13T15:05:28;29.77;;;21.38;;
52126;SDS011;38120;53.176;6.614;2022-10-13T15:07:54;32.80;;;20.88;;
52126;SDS011;38120;53.176;6.614;2022-10-13T15:10:19;28.30;;;21.25;;
52126;SDS011;38120;53.176;6.614;2022-10-13T15:12:45;32.50;;;22.37;;
52126;SDS011;38120;53.176;6.614;2022-10-13T15:15:11;26.73;;;19.90;;
52126;SDS011;38120;53.176;6.614;2022-10-13T15:17:36;26.63;;;19.25;;
52126;SDS011;38120;53.176;6.614;2022-10-13T15:20:03;28.77;;;20.83;;
52126;SDS011;38120;53.176;6.614;2022-10-13T15:22:29;29.55;;;20.95;;
52126;SDS011;38120;53.176;6.614;2022-10-13T15:24:57;33.15;;;23.75;;
52126;SDS011;38120;53.176;6.614;2022-10-13T15:27:24;29.75;;;22.13;;
52126;SDS011;38120;53.176;6.614;2022-10-13T15:29:49;26.10;;;20.13;;
52126;SDS011;38120;53.176;6.614;2022-10-13T15:32:16;28.58;;;21.38;;
52126;SDS011;38120;53.176;6.614;2022-10-13T15:34:43;31.73;;;21.80;;
52126;SDS011;38120;53.176;6.614;2022-10-13T15:37:09;31.20;;;22.17;;
52126;SDS011;38120;53.176;6.614;2022-10-13T15:39:35;30.95;;;22.48;;
52126;SDS011;38120;53.176;6.614;2022-10-13T15:42:01;29.30;;;21.77;;
52126;SDS011;38120;53.176;6.614;2022-10-13T15:44:28;34.05;;;23.27;;
52126;SDS011;38120;53.176;6.614;2022-10-13T15:46:55;29.30;;;22.98;;
52126;SDS011;38120;53.176;6.614;2022-10-13T15:49:22;34.13;;;23.20;;
52126;SDS011;38120;53.176;6.614;2022-10-13T15:51:49;26.65;;;20.85;;
52126;SDS011;38120;53.176;6.614;2022-10-13T15:54:15;32.17;;;23.20;;
52126;SDS011;38120;53.176;6.614;2022-10-13T15:56:41;30.23;;;20.85;;
52126;SDS011;38120;53.176;6.614;2022-10-13T15:59:07;31.13;;;22.98;;
52126;SDS011;38120;53.176;6.614;2022-10-13T16:01:33;32.43;;;24.17;;
52126;SDS011;38120;53.176;6.614;2022-10-13T16:03:59;32.42;;;24.77;;
52126;SDS011;38120;53.176;6.614;2022-10-13T16:06:25;31.52;;;23.80;;
52126;SDS011;38120;53.176;6.614;2022-10-13T16:08:51;33.05;;;23.85;;
52126;SDS011;38120;53.176;6.614;2022-10-13T16:11:18;34.03;;;22.75;;
52126;SDS011;38120;53.176;6.614;2022-10-13T16:13:49;30.95;;;22.13;;
52126;SDS011;38120;53.176;6.614;2022-10-13T16:16:16;32.55;;;24.02;;
52126;SDS011;38120;53.176;6.614;2022-10-13T16:18:43;36.20;;;24.00;;
52126;SDS011;38120;53.176;6.614;2022-10-13T16:21:10;37.13;;;24.27;;
52126;SDS011;38120;53.176;6.614;2022-10-13T16:23:40;41.50;;;26.80;;
52126;SDS011;38120;53.176;6.614;2022-10-13T16:26:06;40.35;;;27.38;;
52126;SDS011;38120;53.176;6.614;2022-10-13T16:28:32;33.25;;;24.20;;
52126;SDS011;38120;53.176;6.614;2022-10-13T16:31:02;31.60;;;24.05;;
52126;SDS011;38120;53.176;6.614;2022-10-13T16:33:29;32.13;;;23.17;;
52126;SDS011;38120;53.176;6.614;2022-10-13T16:36:04;33.65;;;24.20;;
52126;SDS011;38120;53.176;6.614;2022-10-13T16:38:31;34.78;;;24.08;;